Time;durP1;ratioP1;P1;durP2;ratioP2;P2;SDS_P1;SDS_P2;PMS_P1;PMS_P2;Temp;Humidity;BMP_temperature;BMP_pressure;BME280_temperature;BME280_humidity;BME280_pressure;Samples;Min_cycle;Max_cycle;Signal;HPM_P1;HPM_P2
2023/07/28 06:36:57;;;;;;;3.63;1.48;;;;;;;18.82;100.00;100723.53;4986193;28;100442;-27
2023/07/28 06:39:24;;;;;;;3.78;1.73;;;;;;;18.86;100.00;100718.63;4993561;28;97841;-27
2023/07/28 06:41:50;;;;;;;6.68;2.03;;;;;;;18.89;100.00;100730.16;4992339;28;96624;-27
2023/07/28 06:44:15;;;;;;;4.32;1.85;;;;;;;18.87;100.00;100723.09;4993783;28;96790;-27
2023/07/28 06:46:41;;;;;;;5.22;1.77;;;;;;;18.93;100.00;100736.22;4993460;28;98073;-26
2023/07/28 06:49:06;;;;;;;4.45;1.35;;;;;;;18.92;100.00;100725.38;4993462;28;97367;-26
2023/07/28 06:51:33;;;;;;;2.50;1.55;;;;;;;18.83;100.00;100716.16;4993653;28;96817;-27
2023/07/28 06:53:59;;;;;;;2.83;1.55;;;;;;;18.94;100.00;100728.84;4992288;28;97034;-27
2023/07/28 06:56:25;;;;;;;2.92;1.52;;;;;;;18.93;100.00;100722.50;4993055;28;98086;-27
2023/07/28 06:58:51;;;;;;;2.60;1.40;;;;;;;18.99;100.00;100730.09;4993189;28;98345;-27
2023/07/28 07:01:18;;;;;;;4.93;1.35;;;;;;;18.98;100.00;100727.53;4991407;28;96847;-27
2023/07/28 07:03:43;;;;;;;3.38;1.75;;;;;;;19.00;100.00;100734.59;4991899;28;97114;-28
2023/07/28 07:06:09;;;;;;;4.15;1.15;;;;;;;18.99;100.00;100735.59;4991804;28;101296;-28
2023/07/28 07:08:34;;;;;;;6.10;1.85;;;;;;;19.02;100.00;100743.53;4992904;28;97930;-27
2023/07/28 07:11:00;;;;;;;6.75;1.75;;;;;;;19.05;100.00;100748.72;4993152;28;96528;-27
2023/07/28 07:13:25;;;;;;;2.80;1.50;;;;;;;19.06;100.00;100747.69;4993015;28;96648;-27
2023/07/28 07:15:51;;;;;;;6.28;1.80;;;;;;;19.09;100.00;100750.16;4992992;28;97928;-27
2023/07/28 07:18:16;;;;;;;2.95;1.42;;;;;;;19.15;100.00;100754.16;4993529;28;97337;-27
2023/07/28 07:20:42;;;;;;;3.28;1.48;;;;;;;19.16;100.00;100755.88;4993223;28;96707;-26
2023/07/28 07:23:07;;;;;;;2.67;1.60;;;;;;;19.18;100.00;100753.00;4993069;28;96799;-27
2023/07/28 07:25:32;;;;;;;5.55;1.55;;;;;;;19.21;100.00;100761.81;4992384;28;97469;-30
2023/07/28 07:27:58;;;;;;;2.67;1.42;;;;;;;19.20;100.00;100750.97;4992686;28;98795;-27
2023/07/28 07:30:23;;;;;;;3.28;1.17;;;;;;;19.20;100.00;100754.56;4992226;28;96633;-28
2023/07/28 07:32:49;;;;;;;3.83;1.60;;;;;;;19.22;100.00;100762.66;4992739;28;96855;-27
2023/07/28 07:35:14;;;;;;;3.58;1.33;;;;;;;19.23;100.00;100758.88;4990430;28;99354;-28
2023/07/28 07:37:40;;;;;;;3.50;1.58;;;;;;;19.20;100.00;100757.31;4991784;28;97239;-27
2023/07/28 07:40:07;;;;;;;3.47;1.58;;;;;;;19.19;100.00;100754.72;4992315;28;96700;-27
2023/07/28 07:42:49;;;;;;;2.92;1.58;;;;;;;19.23;100.00;100761.63;4990648;28;96885;-27
2023/07/28 07:45:15;;;;;;;5.13;1.70;;;;;;;19.23;100.00;100761.63;4991090;28;99127;-27
2023/07/28 07:47:41;;;;;;;3.72;1.63;;;;;;;19.25;100.00;100773.31;4991047;28;101244;-27
2023/07/28 07:50:11;;;;;;;6.43;1.80;;;;;;;19.26;100.00;100775.94;4989214;28;96791;-30
2023/07/28 07:52:38;;;;;;;4.35;2.08;;;;;;;19.23;100.00;100778.97;4988636;28;97218;-28
2023/07/28 07:55:04;;;;;;;7.18;1.83;;;;;;;19.20;100.00;100776.53;4988503;28;101156;-32
2023/07/28 07:57:29;;;;;;;7.05;1.73;;;;;;;19.26;100.00;100786.06;4988233;28;101944;-28
2023/07/28 07:59:58;;;;;;;5.40;1.73;;;;;;;19.25;100.00;100773.31;4991269;28;96969;-28
2023/07/28 08:02:24;;;;;;;2.55;1.58;;;;;;;19.28;100.00;100778.50;4989267;28;97194;-27
2023/07/28 08:04:50;;;;;;;2.03;1.17;;;;;;;19.33;100.00;100787.19;4990186;28;98030;-27
2023/07/28 08:07:16;;;;;;;2.58;1.52;;;;;;;19.35;100.00;100792.50;4990835;28;99118;-31
2023/07/28 08:09:41;;;;;;;4.57;1.90;;;;;;;19.40;100.00;100792.91;4990708;28;96728;-29
2023/07/28 08:12:08;;;;;;;2.83;1.75;;;;;;;19.44;100.00;100784.19;4991099;28;97119;-27
2023/07/28 08:14:34;;;;;;;3.05;1.55;;;;;;;19.60;100.00;100785.44;4990289;28;102523;-26
2023/07/28 08:16:59;;;;;;;1.92;1.25;;;;;;;19.68;99.70;100782.78;4992066;28;99220;-28
2023/07/28 08:19:24;;;;;;;3.33;1.75;;;;;;;19.76;99.49;100791.13;4992454;28;97084;-27
2023/07/28 08:21:50;;;;;;;5.57;1.63;;;;;;;19.80;98.83;100784.28;4992609;28;96897;-29
2023/07/28 08:24:16;;;;;;;5.10;1.63;;;;;;;19.83;98.68;100783.09;4990557;28;100874;-27
2023/07/28 08:26:41;;;;;;;2.95;1.75;;;;;;;19.91;99.29;100794.19;4991830;28;99123;-26
2023/07/28 08:29:06;;;;;;;3.20;1.67;;;;;;;19.90;98.64;100787.84;4990787;28;96927;-27
2023/07/28 08:31:32;;;;;;;4.75;1.65;;;;;;;19.96;98.35;100789.09;4992540;28;96807;-27
2023/07/28 08:33:57;;;;;;;5.05;2.00;;;;;;;19.98;98.36;100795.31;4991671;28;99296;-26
2023/07/28 08:36:23;;;;;;;5.90;1.63;;;;;;;19.98;98.65;100799.94;4991764;28;99311;-27
2023/07/28 08:38:48;;;;;;;4.70;1.67;;;;;;;20.04;98.27;100799.28;4991083;28;96891;-26
2023/07/28 08:41:14;;;;;;;4.25;1.92;;;;;;;19.98;97.76;100809.06;4991922;28;96803;-27
2023/07/28 08:43:39;;;;;;;4.32;1.77;;;;;;;19.97;97.66;100804.56;4991763;28;98083;-27
2023/07/28 08:46:05;;;;;;;3.40;1.80;;;;;;;19.99;98.13;100813.50;4990213;28;101135;-27
2023/07/28 08:48:31;;;;;;;2.38;1.50;;;;;;;19.95;97.76;100803.88;4995039;28;96653;-27
2023/07/28 08:50:57;;;;;;;4.50;1.80;;;;;;;19.96;97.88;100793.72;4993990;28;97007;-26
2023/07/28 08:53:22;;;;;;;3.17;1.88;;;;;;;20.00;97.50;100797.88;4995418;28;98390;-27
2023/07/28 08:55:48;;;;;;;3.38;1.77;;;;;;;20.04;97.19;100802.91;4995755;28;97227;-27
2023/07/28 08:58:21;;;;;;;3.63;1.75;;;;;;;20.07;97.15;100809.97;4995037;28;96679;-27
2023/07/28 09:00:50;;;;;;;2.65;1.52;;;;;;;20.00;96.85;100806.13;4993958;28;96928;-27
2023/07/28 09:03:16;;;;;;;3.10;1.75;;;;;;;19.99;97.00;100802.53;4993064;28;101030;-27
2023/07/28 09:05:44;;;;;;;4.50;1.88;;;;;;;20.04;97.03;100802.03;4993660;28;101238;-29
2023/07/28 09:08:09;;;;;;;3.67;1.30;;;;;;;20.11;96.39;100809.50;4993804;28;96648;-27
2023/07/28 09:10:43;;;;;;;4.25;2.03;;;;;;;20.25;95.98;100801.72;4995296;28;96691;-27
2023/07/28 09:13:13;;;;;;;4.68;1.60;;;;;;;20.43;95.76;100797.06;4993370;28;101008;-27
2023/07/28 09:15:39;;;;;;;3.05;1.60;;;;;;;20.48;94.54;100791.94;4993301;28;100998;-27
2023/07/28 09:18:07;;;;;;;4.95;2.22;;;;;;;20.53;94.82;100799.72;4994896;28;96625;-27
2023/07/28 09:20:35;;;;;;;2.25;1.33;;;;;;;20.55;94.24;100784.81;4993866;28;96895;-27
2023/07/28 09:23:01;;;;;;;3.58;1.60;;;;;;;20.57;93.58;100788.28;4993292;28;101164;-28
2023/07/28 09:25:28;;;;;;;5.43;1.75;;;;;;;20.67;93.24;100798.31;4993275;28;99483;-27
2023/07/28 09:27:54;;;;;;;3.17;1.75;;;;;;;20.73;93.05;100801.25;4993035;28;97075;-27
2023/07/28 09:30:21;;;;;;;6.50;1.65;;;;;;;20.90;92.53;100807.72;4994666;28;96843;-27
2023/07/28 09:32:52;;;;;;;4.80;1.80;;;;;;;21.09;92.79;100803.88;4994549;28;99972;-27
2023/07/28 09:35:18;;;;;;;4.45;1.75;;;;;;;21.25;90.91;100807.75;4993161;28;100745;-27
2023/07/28 09:37:47;;;;;;;2.80;1.85;;;;;;;21.34;90.75;100801.25;4992924;28;96996;-28
2023/07/28 09:40:14;;;;;;;3.08;1.58;;;;;;;21.53;90.37;100805.69;4993124;28;96832;-27
2023/07/28 09:42:49;;;;;;;3.00;1.45;;;;;;;21.52;90.44;100804.78;4994451;28;97400;-27
2023/07/28 09:45:16;;;;;;;5.40;1.58;;;;;;;21.37;89.38;100792.66;4994966;28;97863;-27
2023/07/28 09:47:44;;;;;;;3.38;1.73;;;;;;;21.34;89.99;100804.03;4993048;28;96551;-27
2023/07/28 09:50:12;;;;;;;2.65;1.25;;;;;;;21.33;90.01;100802.28;4993124;28;96819;-27
2023/07/28 09:52:43;;;;;;;2.97;1.60;;;;;;;21.42;90.56;100799.41;4975989;28;100910;-26
2023/07/28 09:55:11;;;;;;;4.78;1.73;;;;;;;21.50;89.80;100815.16;4992441;28;104148;-28
2023/07/28 09:57:46;;;;;;;2.78;1.38;;;;;;;21.37;89.41;100812.81;4992311;28;96864;-27
2023/07/28 10:00:13;;;;;;;4.72;1.55;;;;;;;21.23;89.85;100815.31;4994553;28;96465;-26
2023/07/28 10:02:40;;;;;;;3.17;1.30;;;;;;;21.16;90.58;100821.47;4994260;28;98362;-26
2023/07/28 10:05:07;;;;;;;2.65;1.50;;;;;;;21.13;90.74;100827.31;4992630;28;100795;-26
2023/07/28 10:07:39;;;;;;;5.30;1.65;;;;;;;21.18;90.60;100816.69;4992817;28;97212;-27
2023/07/28 10:10:10;;;;;;;2.72;1.65;;;;;;;21.21;90.31;100823.75;4993316;28;96761;-28
2023/07/28 10:12:52;;;;;;;2.70;1.10;;;;;;;21.24;87.93;100828.06;4993973;28;99338;-27
2023/07/28 10:15:19;;;;;;;4.18;1.17;;;;;;;21.27;89.56;100823.09;4992532;28;100968;-28
2023/07/28 10:17:54;;;;;;;3.60;1.10;;;;;;;21.27;89.01;100817.59;4992283;28;96693;-27
2023/07/28 10:20:38;;;;;;;2.70;1.42;;;;;;;21.38;89.57;100825.56;4994100;28;96657;-27
2023/07/28 10:23:39;;;;;;;3.40;1.42;;;;;;;21.40;88.53;100828.19;4994012;28;98512;-27
2023/07/28 10:26:07;;;;;;;4.10;1.63;;;;;;;21.36;88.83;100816.59;4991559;28;99349;-27
2023/07/28 10:28:40;;;;;;;4.03;1.25;;;;;;;21.44;88.92;100829.56;4992266;28;96710;-28
2023/07/28 10:31:07;;;;;;;3.83;1.27;;;;;;;21.40;88.29;100825.41;4993723;28;96869;-27
2023/07/28 10:33:34;;;;;;;3.95;1.50;;;;;;;21.46;87.95;100838.56;4992152;28;101054;-26
2023/07/28 10:36:13;;;;;;;4.40;1.63;;;;;;;21.54;88.41;100830.31;4994016;28;97787;-27
2023/07/28 10:38:39;;;;;;;5.32;1.63;;;;;;;21.66;88.48;100839.13;4992083;28;96850;-27
2023/07/28 10:41:13;;;;;;;3.13;1.40;;;;;;;21.67;86.88;100823.47;4993338;28;96853;-27
2023/07/28 10:43:39;;;;;;;2.67;1.25;;;;;;;21.77;87.72;100827.81;4993326;28;98048;-27
2023/07/28 10:46:08;;;;;;;3.22;1.20;;;;;;;21.93;86.86;100829.75;4992053;28;100884;-27
2023/07/28 10:48:35;;;;;;;1.77;1.23;;;;;;;21.91;86.43;100837.31;4992239;28;96633;-27
2023/07/28 10:51:00;;;;;;;1.55;0.80;;;;;;;21.79;83.47;100831.25;4992311;28;96781;-27
2023/07/28 10:53:26;;;;;;;3.30;1.10;;;;;;;21.75;86.72;100840.03;4993336;28;97959;-27
2023/07/28 10:55:52;;;;;;;2.08;1.23;;;;;;;21.72;85.67;100832.09;4991887;28;100929;-27
2023/07/28 10:58:19;;;;;;;2.40;1.02;;;;;;;21.80;86.20;100838.50;4993456;28;96979;-27
2023/07/28 11:00:45;;;;;;;2.88;1.00;;;;;;;21.85;86.54;100843.50;4992375;28;97007;-27
2023/07/28 11:03:12;;;;;;;1.98;0.85;;;;;;;21.79;85.42;100831.25;4991745;28;100806;-27
2023/07/28 11:05:37;;;;;;;1.50;1.02;;;;;;;21.81;85.64;100839.38;4991621;28;101185;-27
2023/07/28 11:08:03;;;;;;;1.70;0.88;;;;;;;21.82;85.77;100838.31;4993017;28;96700;-27
2023/07/28 11:10:30;;;;;;;1.50;0.98;;;;;;;21.87;85.63;100841.44;4990756;28;98138;-27
2023/07/28 11:13:00;;;;;;;1.13;0.75;;;;;;;21.99;85.99;100850.25;4991592;28;101027;-27
2023/07/28 11:15:26;;;;;;;2.95;1.40;;;;;;;21.94;84.52;100827.84;4991488;28;101347;-27
2023/07/28 11:17:52;;;;;;;3.50;1.15;;;;;;;21.97;84.72;100830.25;4993226;28;96693;-27
2023/07/28 11:20:26;;;;;;;3.40;1.10;;;;;;;21.99;85.66;100842.00;4993214;28;96824;-27
2023/07/28 11:23:04;;;;;;;1.38;0.88;;;;;;;21.88;84.00;100831.25;4991418;28;100986;-27
2023/07/28 11:25:32;;;;;;;1.67;1.00;;;;;;;21.88;85.22;100837.66;4991870;28;100825;-28
2023/07/28 11:27:58;;;;;;;1.85;1.00;;;;;;;21.85;85.45;100844.34;4991570;28;96573;-29
2023/07/28 11:30:24;;;;;;;1.63;1.10;;;;;;;21.81;85.30;100844.88;4991863;28;96892;-27
2023/07/28 11:32:51;;;;;;;1.65;1.13;;;;;;;21.79;84.71;100836.78;4990820;28;99224;-29
2023/07/28 11:35:18;;;;;;;5.90;1.20;;;;;;;21.94;84.78;100845.25;4991269;28;101379;-27
2023/07/28 11:37:46;;;;;;;2.47;1.38;;;;;;;22.06;83.27;100845.78;4992457;28;96726;-27
2023/07/28 11:40:14;;;;;;;3.90;1.35;;;;;;;22.18;84.07;100841.66;4991355;28;96889;-27
2023/07/28 11:43:06;;;;;;;4.85;2.00;;;;;;;22.24;83.45;100846.56;4991229;28;101623;-27
2023/07/28 11:45:31;;;;;;;2.85;1.30;;;;;;;22.44;83.38;100841.56;4991908;28;98819;-27
2023/07/28 11:47:57;;;;;;;2.20;1.25;;;;;;;22.44;82.55;100844.31;4992658;28;96482;-27
2023/07/28 11:50:30;;;;;;;2.30;1.30;;;;;;;22.51;81.87;100843.63;4993455;28;96770;-27
2023/07/28 11:52:59;;;;;;;3.28;1.45;;;;;;;22.71;81.74;100833.94;4991193;28;100981;-28
2023/07/28 11:55:24;;;;;;;3.58;1.38;;;;;;;22.78;81.71;100834.13;4992341;28;97824;-27
2023/07/28 11:57:53;;;;;;;3.65;1.50;;;;;;;22.72;81.71;100848.63;4990418;28;98820;-27
2023/07/28 12:00:26;;;;;;;2.63;1.50;;;;;;;22.56;81.44;100836.53;4992153;28;96880;-27
2023/07/28 12:03:00;;;;;;;3.13;1.60;;;;;;;22.41;80.90;100858.47;4990902;28;100888;-27
2023/07/28 12:05:26;;;;;;;3.00;2.00;;;;;;;22.31;81.95;100852.25;4990781;28;99068;-27
2023/07/28 12:07:53;;;;;;;5.78;2.38;;;;;;;22.31;81.73;100848.59;4992813;28;96818;-27
2023/07/28 12:10:18;;;;;;;5.80;2.22;;;;;;;22.36;82.34;100858.13;4992394;28;96829;-27
2023/07/28 12:12:46;;;;;;;5.00;2.50;;;;;;;22.51;80.80;100858.28;4992257;28;97872;-27
2023/07/28 12:15:22;;;;;;;4.28;2.78;;;;;;;22.65;81.14;100860.38;4991018;28;101281;-27
2023/07/28 12:18:08;;;;;;;4.63;2.78;;;;;;;22.89;79.84;100866.91;4992472;28;96478;-27
2023/07/28 12:20:35;;;;;;;5.18;3.28;;;;;;;23.20;79.26;100857.91;4990712;28;96875;-27
2023/07/28 12:23:01;;;;;;;6.78;3.05;;;;;;;23.49;78.78;100857.28;4990008;28;101361;-27
2023/07/28 12:25:26;;;;;;;6.57;3.35;;;;;;;23.53;78.55;100861.44;4991696;28;99151;-27
2023/07/28 12:27:52;;;;;;;4.80;2.60;;;;;;;23.73;77.48;100848.91;4992225;28;96642;-27
2023/07/28 12:30:17;;;;;;;4.82;2.80;;;;;;;24.02;76.40;100844.59;4992065;28;96851;-27
2023/07/28 12:32:43;;;;;;;5.03;2.95;;;;;;;24.24;75.46;100856.75;4991894;28;99515;-27
2023/07/28 12:35:08;;;;;;;7.88;3.08;;;;;;;24.34;75.19;100854.59;4992066;28;97848;-28
2023/07/28 12:37:34;;;;;;;5.40;2.95;;;;;;;24.28;75.52;100852.53;4991420;28;96816;-27
2023/07/28 12:40:01;;;;;;;4.80;3.00;;;;;;;24.15;75.40;100853.16;4992124;28;96856;-27
2023/07/28 12:42:26;;;;;;;5.43;2.97;;;;;;;24.06;74.79;100851.50;4990268;28;101283;-27
2023/07/28 12:44:52;;;;;;;5.47;3.28;;;;;;;23.84;75.99;100850.41;4991797;28;97857;-28
2023/07/28 12:47:17;;;;;;;5.07;3.40;;;;;;;23.71;75.41;100856.47;4991505;28;96642;-27
2023/07/28 12:49:43;;;;;;;7.30;3.88;;;;;;;23.59;76.72;100843.25;4991893;28;96756;-26
2023/07/28 12:52:08;;;;;;;7.85;4.07;;;;;;;23.48;77.83;100859.19;4991744;28;98150;-27
2023/07/28 12:54:34;;;;;;;7.07;3.97;;;;;;;23.34;77.57;100864.63;4990376;28;98849;-27
2023/07/28 12:57:01;;;;;;;6.03;3.58;;;;;;;23.19;77.39;100861.69;4991303;28;96863;-26
2023/07/28 12:59:26;;;;;;;7.25;4.40;;;;;;;23.11;78.27;100866.19;4991524;28;96855;-28
2023/07/28 13:01:52;;;;;;;6.38;3.88;;;;;;;23.08;78.90;100854.66;4991479;28;99575;-27
2023/07/28 13:04:17;;;;;;;5.53;3.58;;;;;;;23.10;78.47;100863.63;4991994;28;97859;-27
2023/07/28 13:06:43;;;;;;;5.95;3.80;;;;;;;23.02;78.97;100867.25;4991806;28;96570;-28
2023/07/28 13:09:09;;;;;;;7.72;4.10;;;;;;;22.88;77.94;100870.69;4990069;28;96809;-27
2023/07/28 13:11:35;;;;;;;5.00;3.35;;;;;;;22.85;79.12;100862.75;4991033;28;98005;-27
2023/07/28 13:14:00;;;;;;;6.72;3.70;;;;;;;22.79;78.86;100866.25;4991478;28;97763;-27
2023/07/28 13:16:25;;;;;;;9.48;4.43;;;;;;;22.77;78.76;100871.06;4991722;28;96633;-27
2023/07/28 13:18:52;;;;;;;6.38;4.20;;;;;;;22.66;78.78;100872.25;4991813;28;96801;-27
2023/07/28 13:21:17;;;;;;;8.85;3.83;;;;;;;22.60;79.25;100871.06;4989921;28;100948;-28
2023/07/28 13:23:42;;;;;;;9.63;4.40;;;;;;;22.64;80.11;100877.09;4991307;28;97306;-28
2023/07/28 13:26:08;;;;;;;7.45;4.07;;;;;;;22.57;79.66;100876.06;4991565;28;96533;-27
2023/07/28 13:28:36;;;;;;;9.32;4.35;;;;;;;22.53;79.97;100877.47;4991625;28;96862;-28
2023/07/28 13:31:02;;;;;;;6.38;3.22;;;;;;;22.47;79.11;100874.31;4989880;28;100969;-26
2023/07/28 13:33:28;;;;;;;7.28;3.38;;;;;;;22.46;79.05;100867.09;4991339;28;100899;-28
2023/07/28 13:35:54;;;;;;;4.50;3.00;;;;;;;22.48;79.23;100870.56;4994185;28;96607;-27
2023/07/28 13:38:19;;;;;;;7.13;3.50;;;;;;;22.62;79.75;100874.53;4994136;28;96900;-27
2023/07/28 13:40:44;;;;;;;6.05;3.80;;;;;;;22.66;78.35;100864.84;4994645;28;97931;-27
2023/07/28 13:43:10;;;;;;;6.25;3.70;;;;;;;22.74;78.36;100875.03;4994382;28;98714;-27
2023/07/28 13:45:35;;;;;;;5.72;3.65;;;;;;;22.62;76.94;100868.13;4994659;28;96781;-27
2023/07/28 13:48:00;;;;;;;5.63;2.92;;;;;;;22.47;78.57;100866.03;4994356;28;96819;-27
2023/07/28 13:50:26;;;;;;;5.38;3.45;;;;;;;22.48;79.41;100856.75;4994550;28;97957;-28
2023/07/28 13:52:51;;;;;;;4.75;3.03;;;;;;;22.53;79.64;100863.66;4994751;28;97351;-27
2023/07/28 13:55:17;;;;;;;4.95;3.55;;;;;;;22.47;79.05;100868.81;4994237;28;96573;-27
2023/07/28 13:57:43;;;;;;;4.82;3.38;;;;;;;22.42;79.70;100867.59;4994148;28;96943;-27
2023/07/28 14:00:09;;;;;;;4.50;3.50;;;;;;;22.39;80.27;100867.97;4993904;28;98546;-28
2023/07/28 14:02:35;;;;;;;6.38;3.78;;;;;;;22.36;81.43;100871.06;4992692;28;100979;-28
2023/07/28 14:05:01;;;;;;;5.68;3.63;;;;;;;22.32;81.49;100867.78;4992880;28;96556;-27
2023/07/28 14:07:26;;;;;;;5.15;3.47;;;;;;;22.26;80.51;100858.28;4994422;28;96813;-27
2023/07/28 14:09:52;;;;;;;4.85;3.17;;;;;;;22.21;80.58;100865.34;4993869;28;98900;-27
2023/07/28 14:12:18;;;;;;;5.45;3.38;;;;;;;22.26;80.01;100871.19;4994092;28;98220;-28
2023/07/28 14:14:43;;;;;;;5.05;3.03;;;;;;;22.21;79.99;100873.59;4994152;28;97094;-27
2023/07/28 14:17:09;;;;;;;4.10;2.80;;;;;;;22.16;79.92;100878.75;4994591;28;96837;-28
2023/07/28 14:19:34;;;;;;;4.82;3.10;;;;;;;22.12;80.54;100866.31;4992557;28;99579;-27
2023/07/28 14:21:59;;;;;;;4.70;3.30;;;;;;;22.22;81.20;100875.34;4993696;28;99367;-27
2023/07/28 14:24:25;;;;;;;3.30;2.30;;;;;;;22.20;81.58;100869.09;4993583;28;96589;-27
2023/07/28 14:26:50;;;;;;;3.65;2.05;;;;;;;22.19;80.79;100868.25;4994014;28;96896;-29
2023/07/28 14:29:15;;;;;;;3.35;1.95;;;;;;;22.21;80.79;100882.75;4994094;28;97378;-28
2023/07/28 14:31:41;;;;;;;2.88;1.95;;;;;;;22.16;80.62;100876.00;4993894;28;97789;-26
2023/07/28 14:34:06;;;;;;;2.83;1.80;;;;;;;22.21;80.61;100885.50;4994386;28;96672;-28
2023/07/28 14:36:34;;;;;;;3.67;2.08;;;;;;;22.24;80.50;100881.56;4993503;28;96907;-27
2023/07/28 14:38:59;;;;;;;2.63;1.75;;;;;;;22.13;79.97;100890.13;4993248;28;99398;-27
2023/07/28 14:41:25;;;;;;;6.13;2.65;;;;;;;22.11;80.31;100894.94;4994118;28;97858;-26
2023/07/28 14:43:50;;;;;;;3.85;2.50;;;;;;;22.06;80.42;100900.97;4992980;28;96528;-26
2023/07/28 14:46:15;;;;;;;3.75;2.15;;;;;;;22.02;80.80;100899.56;4993218;28;96810;-27
2023/07/28 14:48:41;;;;;;;2.88;2.00;;;;;;;21.92;80.82;100915.41;4993134;28;97889;-27
2023/07/28 14:51:06;;;;;;;4.20;2.08;;;;;;;21.80;81.71;100899.16;4993338;28;97850;-26
2023/07/28 14:53:40;;;;;;;2.80;1.80;;;;;;;21.65;82.18;100900.84;4993623;28;96656;-27
2023/07/28 14:56:05;;;;;;;2.75;2.03;;;;;;;21.56;82.63;100899.06;4991998;28;96903;-26
2023/07/28 14:58:31;;;;;;;3.00;1.63;;;;;;;21.47;82.53;100900.03;4993174;28;97565;-26
2023/07/28 15:00:57;;;;;;;2.55;1.73;;;;;;;21.41;82.71;100902.44;4991837;28;100659;-26
2023/07/28 15:03:26;;;;;;;2.38;1.45;;;;;;;21.40;83.13;100888.81;4991987;28;96600;-27
2023/07/28 15:05:51;;;;;;;2.15;1.67;;;;;;;21.45;82.96;100889.16;4992201;28;96916;-26
2023/07/28 15:08:17;;;;;;;2.88;1.88;;;;;;;21.44;82.87;100883.84;4993162;28;98476;-26
2023/07/28 15:10:42;;;;;;;2.92;1.98;;;;;;;21.52;82.41;100890.25;4992910;28;99152;-27
2023/07/28 15:13:08;;;;;;;5.40;1.73;;;;;;;21.55;81.67;100889.94;4992603;28;96503;-26
2023/07/28 15:15:34;;;;;;;2.38;1.63;;;;;;;21.58;81.69;100880.47;4991824;28;97061;-26
2023/07/28 15:17:59;;;;;;;2.90;1.95;;;;;;;21.62;81.79;100870.84;4993002;28;97977;-27
2023/07/28 15:20:24;;;;;;;4.20;2.05;;;;;;;21.63;80.53;100867.91;4993011;28;97777;-28
2023/07/28 15:22:50;;;;;;;3.22;1.80;;;;;;;21.59;79.96;100866.50;4993382;28;96540;-26
2023/07/28 15:25:15;;;;;;;2.80;1.70;;;;;;;21.54;80.18;100874.41;4992835;28;96813;-26
2023/07/28 15:27:41;;;;;;;3.58;1.80;;;;;;;21.54;79.74;100870.78;4993254;28;97346;-27
2023/07/28 15:30:10;;;;;;;2.60;1.60;;;;;;;21.58;80.58;100874.94;4991736;28;101043;-28
2023/07/28 15:32:37;;;;;;;2.17;1.38;;;;;;;21.53;80.81;100878.19;4992812;28;96435;-26
2023/07/28 15:35:03;;;;;;;1.85;1.45;;;;;;;21.53;80.83;100875.44;4992918;28;96826;-26
2023/07/28 15:37:29;;;;;;;2.83;1.65;;;;;;;21.51;80.51;100879.41;4990495;28;101971;-27
2023/07/28 15:39:54;;;;;;;2.53;1.63;;;;;;;21.40;80.68;100880.53;4991257;28;101025;-27
2023/07/28 15:42:20;;;;;;;1.98;1.42;;;;;;;21.40;81.06;100873.16;4992624;28;97044;-27
2023/07/28 15:44:45;;;;;;;1.83;1.35;;;;;;;21.32;81.09;100867.56;4992746;28;96815;-27
2023/07/28 15:47:11;;;;;;;2.40;1.38;;;;;;;21.36;80.77;100860.69;4992494;28;99346;-26
2023/07/28 15:49:36;;;;;;;1.60;1.15;;;;;;;21.42;80.85;100859.19;4992616;28;97201;-26
2023/07/28 15:52:02;;;;;;;2.65;1.27;;;;;;;21.33;80.90;100865.66;4992873;28;96503;-27
2023/07/28 15:54:28;;;;;;;1.60;1.17;;;;;;;21.37;80.92;100862.41;4993081;28;96792;-26
2023/07/28 15:56:53;;;;;;;1.65;1.17;;;;;;;21.45;80.90;100856.09;4991617;28;99547;-27
2023/07/28 15:59:19;;;;;;;1.33;1.00;;;;;;;21.48;80.39;100866.81;4992237;28;97755;-28
2023/07/28 16:01:44;;;;;;;2.63;1.20;;;;;;;21.40;80.93;100861.25;4991952;28;96621;-27
2023/07/28 16:04:09;;;;;;;1.80;1.33;;;;;;;21.41;80.38;100865.75;4992389;28;96816;-27
2023/07/28 16:06:35;;;;;;;1.80;1.20;;;;;;;21.41;80.59;100858.34;4992332;28;97913;-27
2023/07/28 16:09:00;;;;;;;1.65;1.00;;;;;;;21.47;81.04;100856.78;4992351;28;97279;-27
2023/07/28 16:11:26;;;;;;;1.13;0.95;;;;;;;21.49;80.42;100865.78;4992469;28;96614;-26
2023/07/28 16:13:51;;;;;;;2.28;1.20;;;;;;;21.54;81.16;100857.88;4992508;28;96770;-26
2023/07/28 16:16:16;;;;;;;2.70;1.23;;;;;;;21.54;79.95;100848.75;4992345;28;98029;-27
2023/07/28 16:18:42;;;;;;;1.60;1.17;;;;;;;21.71;80.96;100852.41;4992127;28;99092;-26
2023/07/28 16:21:07;;;;;;;2.70;1.67;;;;;;;21.74;79.94;100838.31;4992451;28;96701;-26
2023/07/28 16:23:32;;;;;;;1.58;1.02;;;;;;;21.74;80.10;100847.44;4992559;28;96798;-26
2023/07/28 16:25:58;;;;;;;1.80;1.25;;;;;;;21.70;79.87;100836.91;4991621;28;97954;-26
2023/07/28 16:28:23;;;;;;;2.55;1.55;;;;;;;21.78;80.03;100847.97;4990702;28;100786;-26
2023/07/28 16:30:48;;;;;;;0.95;0.82;;;;;;;21.78;80.19;100839.69;4992100;28;96724;-26
2023/07/28 16:33:14;;;;;;;1.70;1.15;;;;;;;21.76;80.22;100845.38;4991871;28;96908;-26
2023/07/28 16:35:39;;;;;;;2.17;1.23;;;;;;;21.66;80.07;100833.63;4991989;28;98052;-26
2023/07/28 16:38:05;;;;;;;2.42;1.38;;;;;;;21.71;79.99;100845.00;4991769;28;97801;-27
2023/07/28 16:40:30;;;;;;;1.50;1.02;;;;;;;21.74;80.03;100841.94;4992077;28;96672;-26
2023/07/28 16:42:56;;;;;;;2.90;1.38;;;;;;;21.70;80.59;100834.16;4992518;28;96800;-27
2023/07/28 16:45:22;;;;;;;3.38;0.93;;;;;;;21.70;80.24;100836.91;4990375;28;101542;-27
2023/07/28 16:47:48;;;;;;;1.38;1.17;;;;;;;21.69;80.39;100829.66;4991476;28;98714;-26
2023/07/28 16:50:13;;;;;;;1.88;1.20;;;;;;;21.68;80.72;100838.97;4991283;28;96708;-28
2023/07/28 16:52:38;;;;;;;1.08;0.85;;;;;;;21.66;80.36;100828.09;4991726;28;97000;-27
2023/07/28 16:55:04;;;;;;;1.50;1.08;;;;;;;21.64;79.85;100824.66;4991356;28;99274;-27
2023/07/28 16:57:29;;;;;;;1.50;1.10;;;;;;;21.65;79.54;100834.66;4991452;28;97305;-26
2023/07/28 16:59:55;;;;;;;1.88;1.30;;;;;;;21.58;80.14;100831.69;4992173;28;96575;-27
2023/07/28 17:02:20;;;;;;;1.58;1.08;;;;;;;21.56;80.17;100825.47;4991837;28;96947;-26
2023/07/28 17:04:46;;;;;;;1.20;0.77;;;;;;;21.44;79.60;100818.56;4991821;28;97338;-27
2023/07/28 17:07:11;;;;;;;2.10;1.10;;;;;;;21.40;80.34;100829.06;4991945;28;97830;-26
2023/07/28 17:09:36;;;;;;;1.52;1.00;;;;;;;21.44;80.14;100824.06;4993590;28;96761;-26
2023/07/28 17:12:02;;;;;;;1.30;0.95;;;;;;;21.41;80.13;100813.38;4995224;28;96830;-26
2023/07/28 17:14:28;;;;;;;0.82;0.70;;;;;;;21.40;80.69;100811.63;4993030;28;101997;-26
2023/07/28 17:16:54;;;;;;;1.20;1.00;;;;;;;21.41;80.39;100808.72;4994803;28;97780;-27
2023/07/28 17:19:20;;;;;;;1.67;0.95;;;;;;;21.48;80.44;100825.47;4994953;28;97633;-26
2023/07/28 17:21:46;;;;;;;2.67;0.90;;;;;;;21.46;80.44;100813.75;4994813;28;97060;-27
2023/07/28 17:24:11;;;;;;;1.70;1.10;;;;;;;21.46;80.05;100815.66;4993747;28;98033;-26
2023/07/28 17:26:37;;;;;;;1.35;0.98;;;;;;;21.46;80.14;100812.88;4994450;28;98728;-26
2023/07/28 17:29:02;;;;;;;0.95;0.85;;;;;;;21.50;80.11;100817.00;4994934;28;96679;-26
2023/07/28 17:31:28;;;;;;;1.10;0.73;;;;;;;21.59;79.67;100821.53;4995271;28;96820;-32
2023/07/28 17:33:53;;;;;;;1.25;0.85;;;;;;;21.50;79.87;100811.50;4993405;28;99301;-26
2023/07/28 17:36:19;;;;;;;1.02;0.90;;;;;;;21.50;79.80;100819.78;4994118;28;99293;-26
2023/07/28 17:38:44;;;;;;;1.67;1.08;;;;;;;21.46;79.80;100822.00;4993747;28;96645;-27
2023/07/28 17:41:09;;;;;;;1.23;0.80;;;;;;;21.45;80.28;100813.91;4994762;28;96503;-26
2023/07/28 17:43:35;;;;;;;1.83;0.95;;;;;;;21.45;80.33;100812.00;4994615;28;97418;-27
2023/07/28 17:46:01;;;;;;;1.30;0.90;;;;;;;21.52;81.05;100825.97;4994253;28;97800;-27
2023/07/28 17:48:27;;;;;;;2.40;0.90;;;;;;;21.56;80.48;100822.72;4994561;28;96545;-26
2023/07/28 17:50:53;;;;;;;1.50;1.00;;;;;;;21.63;80.42;100820.19;4993102;28;96886;-26
2023/07/28 17:53:19;;;;;;;1.25;0.90;;;;;;;21.67;80.42;100816.06;4990761;28;101047;-27
2023/07/28 17:55:45;;;;;;;2.30;1.00;;;;;;;21.70;80.36;100817.63;4990463;28;101178;-27